Time;durP1;ratioP1;P1;durP2;ratioP2;P2;SDS_P1;SDS_P2;PMS_P1;PMS_P2;Temp;Humidity;BMP_temperature;BMP_pressure;BME280_temperature;BME280_humidity;BME280_pressure;Samples;Min_cycle;Max_cycle;Signal;HPM_P1;HPM_P2
2022/01/13 00:01:42;;;;;;;;;;;;;;;12.95;48.48;102815.13;4921726;28;97869;-56
2022/01/13 00:04:10;;;;;;;;;;;;;;;12.94;48.52;102802.66;4922243;28;98657;-57
2022/01/13 00:06:37;;;;;;;;;;;;;;;12.94;48.60;102797.25;4922121;28;98526;-56
2022/01/13 00:09:03;;;;;;;;;;;;;;;12.94;48.31;102792.66;4921257;28;98200;-57
2022/01/13 00:11:29;;;;;;;;;;;;;;;12.93;48.68;102793.72;4921538;28;109351;-56
2022/01/13 00:14:22;;;;;;;;;;;;;;;12.94;48.45;102789.94;4928557;28;128741;-57
2022/01/13 00:17:10;;;;;;;;;;;;;;;12.94;48.57;102789.94;4941016;28;98544;-64
2022/01/13 00:24:43;;;;;;;;;;;;;;;12.95;48.64;102793.47;4939067;28;98498;-64
2022/01/13 00:27:12;;;;;;;;;;;;;;;12.94;48.78;102797.25;4942012;28;98639;-64
2022/01/13 00:29:43;;;;;;;;;;;;;;;12.94;48.63;102794.53;4940415;28;98043;-56
2022/01/13 00:32:10;;;;;;;;;;;;;;;12.95;48.69;102790.75;4941895;28;97970;-64
2022/01/13 00:34:35;;;;;;;;;;;;;;;12.95;48.71;102793.47;4940566;28;99037;-65
2022/01/13 00:37:02;;;;;;;;;;;;;;;12.96;48.62;102795.13;4940812;28;126348;-57
2022/01/13 00:39:27;;;;;;;;;;;;;;;12.95;48.79;102786.16;4936426;28;121602;-57
2022/01/13 00:41:53;;;;;;;;;;;;;;;12.95;48.61;102783.47;4922013;28;122240;-65
2022/01/13 00:44:21;;;;;;;;;;;;;;;12.95;48.56;102780.75;4922393;28;98154;-57
2022/01/13 00:47:00;;;;;;;;;;;;;;;12.95;48.85;102786.16;4901922;28;97986;-64
2022/01/13 00:49:26;;;;;;;;;;;;;;;12.95;48.67;102778.06;4902329;28;98342;-65
2022/01/13 00:51:52;;;;;;;;;;;;;;;12.95;48.75;102783.47;4919126;28;98141;-64
2022/01/13 00:54:18;;;;;;;;;;;;;;;12.95;48.63;102780.75;4919959;28;128183;-65
2022/01/13 00:56:44;;;;;;;;;;;;;;;12.96;48.68;102781.56;4901807;28;98739;-56
2022/01/13 00:59:12;;;;;;;;;;;;;;;12.96;48.75;102776.16;4919970;28;127052;-64
2022/01/13 01:01:39;;;;;;;;;;;;;;;12.96;48.76;102777.00;4939041;28;98049;-57
2022/01/13 01:04:05;;;;;;;;;;;;;;;12.94;48.79;102771.00;4939766;28;120433;-57
2022/01/13 01:06:32;;;;;;;;;;;;;;;12.95;48.79;102769.09;4932779;28;98837;-57
2022/01/13 01:08:58;;;;;;;;;;;;;;;12.94;48.90;102776.41;4920233;28;123669;-64
2022/01/13 01:11:27;;;;;;;;;;;;;;;12.94;49.01;102771.00;4940543;28;98765;-57
2022/01/13 01:13:56;;;;;;;;;;;;;;;12.93;48.81;102771.19;4940455;28;97828;-57
2022/01/13 01:16:22;;;;;;;;;;;;;;;12.93;48.80;102763.94;4940201;28;98222;-57
2022/01/13 01:18:55;;;;;;;;;;;;;;;12.93;48.72;102769.34;4938743;28;99110;-56
2022/01/13 01:28:57;;;;;;;;;;;;;;;12.93;48.95;102763.06;4920849;28;97854;-57
2022/01/13 01:31:28;;;;;;;;;;;;;;;12.93;48.95;102755.81;4921374;28;98115;-57
2022/01/13 01:34:53;;;;;;;;;;;;;;;12.92;48.96;102758.72;4923055;28;98491;-57
2022/01/13 01:36:41;;;;;;;;;;;;;;;12.92;48.86;102753.31;4938585;28;98493;-65
2022/01/13 01:39:08;;;;;;;;;;;;;;;12.92;49.01;102750.59;4939671;28;98616;-57
2022/01/13 01:41:39;;;;;;;;;;;;;;;12.91;49.12;102744.38;4938027;28;97959;-65
2022/01/13 01:44:29;;;;;;;;;;;;;;;12.91;48.95;102735.44;4936511;28;119061;-57
2022/01/13 01:46:55;;;;;;;;;;;;;;;12.91;48.90;102724.59;4924975;28;98632;-64
2022/01/13 01:49:24;;;;;;;;;;;;;;;12.90;48.82;102723.78;4938372;28;98857;-57
2022/01/13 01:51:55;;;;;;;;;;;;;;;12.89;48.94;102721.28;4940058;28;98283;-57
2022/01/13 01:54:21;;;;;;;;;;;;;;;12.89;48.99;102727.53;4939752;28;98504;-57
2022/01/13 01:56:47;;;;;;;;;;;;;;;12.88;48.84;102725.88;4920211;28;98443;-57
2022/01/13 01:59:16;;;;;;;;;;;;;;;12.88;48.84;102725.88;4917579;28;97944;-57
2022/01/13 02:01:43;;;;;;;;;;;;;;;12.87;48.89;102726.94;4920140;28;97734;-57
2022/01/13 02:04:09;;;;;;;;;;;;;;;12.86;48.96;102735.28;4930354;28;98602;-65
2022/01/13 02:06:37;;;;;;;;;;;;;;;12.84;48.84;102735.50;4938647;28;99184;-57
2022/01/13 02:09:03;;;;;;;;;;;;;;;12.85;48.90;102736.31;4933369;28;99047;-65
2022/01/13 02:11:29;;;;;;;;;;;;;;;12.83;48.93;102733.84;4920500;28;97804;-64
2022/01/13 02:13:59;;;;;;;;;;;;;;;12.81;48.86;102725.16;4919388;28;128168;-56
2022/01/13 02:16:42;;;;;;;;;;;;;;;12.80;48.87;102728.88;4920457;28;98786;-56
2022/01/13 02:19:08;;;;;;;;;;;;;;;12.81;48.87;102727.00;4919927;28;98402;-57
2022/01/13 02:21:34;;;;;;;;;;;;;;;12.78;48.84;102718.31;4917156;28;122295;-57
2022/01/13 02:24:00;;;;;;;;;;;;;;;12.78;48.96;102720.19;4920264;28;98128;-57
2022/01/13 02:26:28;;;;;;;;;;;;;;;12.76;48.93;102717.69;4919188;28;126160;-65
2022/01/13 02:28:54;;;;;;;;;;;;;;;12.75;48.91;102716.06;4918055;28;98310;-64
2022/01/13 02:31:21;;;;;;;;;;;;;;;12.75;48.85;102717.94;4917883;28;121560;-64
2022/01/13 02:33:47;;;;;;;;;;;;;;;12.73;48.92;102715.47;4935603;28;99360;-64
2022/01/13 02:36:17;;;;;;;;;;;;;;;12.74;48.98;102714.41;4920335;28;98169;-64
2022/01/13 02:38:50;;;;;;;;;;;;;;;12.74;48.91;102721.69;4934034;28;97831;-57
2022/01/13 02:41:16;;;;;;;;;;;;;;;12.74;49.01;102716.28;4932480;28;97869;-64
2022/01/13 02:43:44;;;;;;;;;;;;;;;12.73;49.00;102718.16;4927706;28;98261;-57
2022/01/13 02:46:29;;;;;;;;;;;;;;;12.74;48.93;102719.00;4920487;28;97935;-57
2022/01/13 02:48:55;;;;;;;;;;;;;;;12.73;48.86;102720.03;4920055;28;97755;-57
2022/01/13 02:51:21;;;;;;;;;;;;;;;12.72;48.84;102718.38;4920102;28;120146;-64
2022/01/13 02:53:47;;;;;;;;;;;;;;;12.72;49.05;102721.09;4916844;28;128224;-56
2022/01/13 02:56:13;;;;;;;;;;;;;;;12.71;48.83;102730.25;4933251;28;99194;-57
2022/01/13 02:58:39;;;;;;;;;;;;;;;12.71;49.02;102727.56;4918038;28;101066;-57
2022/01/13 03:01:05;;;;;;;;;;;;;;;12.70;49.06;102734.84;4918645;28;124073;-57
2022/01/13 03:03:31;;;;;;;;;;;;;;;12.70;48.82;102745.69;4919915;28;116797;-65
2022/01/13 03:06:00;;;;;;;;;;;;;;;12.70;48.96;102736.75;4922244;28;98581;-56
2022/01/13 03:08:26;;;;;;;;;;;;;;;12.70;48.92;102728.63;4919413;28;120845;-57
2022/01/13 03:10:52;;;;;;;;;;;;;;;12.71;48.96;102716.75;4921948;28;122871;-64
2022/01/13 03:13:22;;;;;;;;;;;;;;;12.71;48.96;102724.84;4942862;28;98598;-64
2022/01/13 03:15:48;;;;;;;;;;;;;;;12.71;48.89;102716.75;4942885;28;98218;-64
2022/01/13 03:18:14;;;;;;;;;;;;;;;12.71;48.93;102714.03;4942121;28;126835;-57
2022/01/13 03:20:40;;;;;;;;;;;;;;;12.70;48.97;102705.09;4925412;28;122178;-65
2022/01/13 03:23:06;;;;;;;;;;;;;;;12.69;48.97;102689.91;4927411;28;128067;-64
2022/01/13 03:25:32;;;;;;;;;;;;;;;12.70;48.89;102691.56;4940734;28;98629;-57
2022/01/13 03:28:03;;;;;;;;;;;;;;;12.70;48.82;102680.72;4941911;28;98051;-57
2022/01/13 03:30:29;;;;;;;;;;;;;;;12.68;48.84;102682.00;4932452;28;98555;-57
2022/01/13 03:32:55;;;;;;;;;;;;;;;12.69;48.64;102697.19;4921808;28;127130;-57
2022/01/13 03:35:21;;;;;;;;;;;;;;;12.68;48.79;102709.88;4921572;28;128666;-65
2022/01/13 03:37:47;;;;;;;;;;;;;;;12.68;48.81;102709.06;4921792;28;119966;-64
2022/01/13 03:40:13;;;;;;;;;;;;;;;12.67;48.77;102707.41;4922599;28;122505;-64
2022/01/13 03:42:39;;;;;;;;;;;;;;;12.67;48.89;102702.00;4921906;28;98343;-64
2022/01/13 03:45:05;;;;;;;;;;;;;;;12.66;48.92;102701.19;4922026;28;98811;-64
2022/01/13 03:47:31;;;;;;;;;;;;;;;12.66;48.81;102700.38;4920586;28;118565;-64
2022/01/13 03:49:57;;;;;;;;;;;;;;;12.65;48.87;102699.50;4934316;28;114675;-64
2022/01/13 03:52:23;;;;;;;;;;;;;;;12.64;49.07;102691.63;4927999;28;99383;-57
2022/01/13 03:55:27;;;;;;;;;;;;;;;12.63;48.88;102679.16;4937798;28;99229;-64
2022/01/13 03:58:11;;;;;;;;;;;;;;;12.63;48.82;102680.00;4923981;28;98113;-57
2022/01/13 04:01:11;;;;;;;;;;;;;;;12.62;48.83;102678.34;4921583;28;98284;-56
2022/01/13 04:03:37;;;;;;;;;;;;;;;12.61;48.73;102673.16;4929148;28;98799;-56
2022/01/13 04:06:16;;;;;;;;;;;;;;;12.60;48.86;102674.22;4940455;28;98780;-65
2022/01/13 04:08:45;;;;;;;;;;;;;;;12.57;48.71;102672.78;4926632;28;98351;-64
2022/01/13 04:11:31;;;;;;;;;;;;;;;12.56;48.69;102663.00;4935684;28;97810;-64
2022/01/13 04:14:01;;;;;;;;;;;;;;;12.55;48.76;102666.78;4940807;28;98213;-57
2022/01/13 04:16:29;;;;;;;;;;;;;;;12.53;48.69;102664.28;4931213;28;99175;-63
2022/01/13 04:18:59;;;;;;;;;;;;;;;12.53;48.69;102666.16;4922080;28;98030;-64
2022/01/13 04:21:25;;;;;;;;;;;;;;;12.52;48.79;102668.03;4921846;28;98486;-57
2022/01/13 04:23:54;;;;;;;;;;;;;;;12.52;48.63;102659.94;4920712;28;128904;-65
2022/01/13 04:26:27;;;;;;;;;;;;;;;12.51;48.76;102661.00;4921875;28;98790;-65
2022/01/13 04:29:01;;;;;;;;;;;;;;;12.51;48.85;102666.41;4920117;28;98122;-65
2022/01/13 04:31:27;;;;;;;;;;;;;;;12.52;48.57;102662.63;4921508;28;98077;-56
2022/01/13 04:33:53;;;;;;;;;;;;;;;12.53;48.70;102647.22;4922161;28;99006;-56
2022/01/13 04:36:19;;;;;;;;;;;;;;;12.52;48.66;102648.28;4933217;28;98101;-65
2022/01/13 04:38:45;;;;;;;;;;;;;;;12.53;48.70;102649.94;4939863;28;128332;-56
2022/01/13 04:41:11;;;;;;;;;;;;;;;12.55;48.72;102641.59;4938036;28;123427;-64
2022/01/13 04:43:37;;;;;;;;;;;;;;;12.54;48.64;102646.19;4939422;28;98472;-64
2022/01/13 04:46:03;;;;;;;;;;;;;;;12.55;48.76;102655.94;4939272;28;127652;-56
2022/01/13 04:48:29;;;;;;;;;;;;;;;12.56;48.60;102659.47;4940256;28;126593;-64
2022/01/13 04:50:55;;;;;;;;;;;;;;;12.55;48.47;102658.66;4939432;28;113847;-63
2022/01/13 04:53:21;;;;;;;;;;;;;;;12.55;48.90;102661.38;4898544;28;127288;-65
2022/01/13 04:55:52;;;;;;;;;;;;;;;12.56;48.85;102668.41;4928416;28;98940;-56
2022/01/13 04:58:18;;;;;;;;;;;;;;;12.57;48.60;102678.19;4941132;28;98294;-57
2022/01/13 05:00:44;;;;;;;;;;;;;;;12.57;48.79;102680.88;4929018;28;98020;-57
2022/01/13 05:03:10;;;;;;;;;;;;;;;12.58;48.77;102684.44;4921705;28;128952;-57
2022/01/13 05:05:36;;;;;;;;;;;;;;;12.60;48.79;102685.03;4938707;28;118682;-64
2022/01/13 05:08:02;;;;;;;;;;;;;;;12.60;48.56;102680.44;4939808;28;127470;-65
2022/01/13 05:10:28;;;;;;;;;;;;;;;12.61;48.63;102689.38;4930128;28;106170;-57
2022/01/13 05:12:56;;;;;;;;;;;;;;;12.61;48.56;102684.78;4920643;28;128066;-56
2022/01/13 05:15:25;;;;;;;;;;;;;;;12.62;48.56;102682.94;4929605;28;98772;-65
2022/01/13 05:20:28;;;;;;;;;;;;;;;12.63;48.65;102681.88;4938855;28;97859;-57
2022/01/13 05:22:54;;;;;;;;;;;;;;;12.63;48.62;102679.16;4940113;28;99196;-64
2022/01/13 05:25:20;;;;;;;;;;;;;;;12.64;48.68;102672.69;4938633;28;125151;-63
2022/01/13 05:27:47;;;;;;;;;;;;;;;12.65;48.58;102666.22;4923243;28;98052;-64
2022/01/13 05:30:15;;;;;;;;;;;;;;;12.65;48.64;102658.09;4919944;28;113429;-65
2022/01/13 05:32:41;;;;;;;;;;;;;;;12.65;48.64;102666.22;4935231;28;98126;-65
2022/01/13 05:35:07;;;;;;;;;;;;;;;12.68;48.66;102660.34;4940940;28;99065;-64
2022/01/13 05:37:33;;;;;;;;;;;;;;;12.67;48.69;102659.53;4931364;28;98384;-65
2022/01/13 05:39:59;;;;;;;;;;;;;;;12.68;48.54;102650.34;4919186;28;97783;-63
2022/01/13 05:42:25;;;;;;;;;;;;;;;12.68;48.60;102655.78;4917149;28;127362;-64
2022/01/13 05:44:51;;;;;;;;;;;;;;;12.68;48.66;102653.06;4920475;28;106981;-64
2022/01/13 05:47:17;;;;;;;;;;;;;;;12.69;48.64;102653.88;4921407;28;98175;-65
2022/01/13 05:49:43;;;;;;;;;;;;;;;12.68;48.52;102639.53;4919237;28;112051;-66
2022/01/13 05:52:10;;;;;;;;;;;;;;;12.69;48.73;102641.22;4918962;28;98304;-65
2022/01/13 05:54:36;;;;;;;;;;;;;;;12.68;48.76;102642.25;4918364;28;98096;-65
2022/01/13 05:57:02;;;;;;;;;;;;;;;12.68;48.52;102631.41;4917713;28;99310;-64
2022/01/13 05:59:28;;;;;;;;;;;;;;;12.69;48.62;102635.81;4920213;28;104896;-65
2022/01/13 06:01:54;;;;;;;;;;;;;;;12.69;48.63;102637.66;4919914;28;127216;-65
2022/01/13 06:04:20;;;;;;;;;;;;;;;12.70;48.70;102642.84;4920364;28;101969;-65
2022/01/13 06:06:46;;;;;;;;;;;;;;;12.70;48.47;102639.31;4918844;28;126484;-65
2022/01/13 06:09:12;;;;;;;;;;;;;;;12.70;48.51;102650.97;4921051;28;121981;-65
2022/01/13 06:11:40;;;;;;;;;;;;;;;12.69;48.60;102638.50;4938637;28;127100;-64
2022/01/13 06:14:06;;;;;;;;;;;;;;;12.70;48.63;102640.16;4940018;28;99152;-64
2022/01/13 06:16:32;;;;;;;;;;;;;;;12.71;48.58;102649.91;4938304;28;126635;-64
2022/01/13 06:18:58;;;;;;;;;;;;;;;12.70;48.52;102642.84;4939871;28;97883;-65
2022/01/13 06:21:24;;;;;;;;;;;;;;;12.70;48.58;102642.84;4937563;28;119946;-64
2022/01/13 06:23:50;;;;;;;;;;;;;;;12.71;48.57;102646.38;4937744;28;129158;-65
2022/01/13 06:26:16;;;;;;;;;;;;;;;12.71;48.59;102651.78;4938219;28;112615;-64
2022/01/13 06:28:42;;;;;;;;;;;;;;;12.71;48.57;102660.72;4939381;28;113113;-65
2022/01/13 06:31:08;;;;;;;;;;;;;;;12.71;48.66;102663.44;4932772;28;128244;-64
2022/01/13 06:33:34;;;;;;;;;;;;;;;12.72;48.49;102662.38;4933370;28;98420;-64
2022/01/13 06:36:03;;;;;;;;;;;;;;;12.73;48.53;102657.78;4925321;28;97983;-64
2022/01/13 06:38:32;;;;;;;;;;;;;;;12.72;48.64;102667.78;4936392;28;98054;-65
2022/01/13 06:40:58;;;;;;;;;;;;;;;12.73;48.70;102669.47;4924572;28;121506;-66
2022/01/13 06:43:24;;;;;;;;;;;;;;;12.73;48.69;102674.03;4925055;28;98127;-64
2022/01/13 06:45:50;;;;;;;;;;;;;;;12.73;48.61;102683.00;4923084;28;126125;-65
2022/01/13 06:48:16;;;;;;;;;;;;;;;12.73;48.54;102679.44;4923741;28;97824;-65
2022/01/13 06:50:42;;;;;;;;;;;;;;;12.74;48.47;102675.69;4936917;28;128891;-65
2022/01/13 06:53:08;;;;;;;;;;;;;;;12.73;48.81;102668.59;4942263;28;114397;-65
2022/01/13 06:55:34;;;;;;;;;;;;;;;12.73;48.56;102669.47;4931658;28;109710;-64
2022/01/13 06:57:59;;;;;;;;;;;;;;;12.73;48.58;102668.59;4922381;28;122240;-57
2022/01/13 07:00:25;;;;;;;;;;;;;;;12.72;48.57;102669.66;4921449;28;127757;-65
2022/01/13 07:02:53;;;;;;;;;;;;;;;12.73;48.45;102680.28;4921008;28;98317;-57
2022/01/13 07:05:19;;;;;;;;;;;;;;;12.73;48.86;102679.44;4912325;28;98175;-62
2022/01/13 07:07:45;;;;;;;;;;;;;;;12.74;48.57;102683.81;4919153;28;124048;-57
2022/01/13 07:10:11;;;;;;;;;;;;;;;12.74;48.53;102687.34;4921075;28;99671;-57
2022/01/13 07:12:38;;;;;;;;;;;;;;;12.74;48.40;102683.81;4921852;28;109033;-56
2022/01/13 07:15:05;;;;;;;;;;;;;;;12.74;48.53;102690.06;4926251;28;121286;-64
2022/01/13 07:17:31;;;;;;;;;;;;;;;12.76;48.51;102685.22;4921882;28;118204;-64
2022/01/13 07:19:57;;;;;;;;;;;;;;;12.76;48.37;102690.63;4934209;28;107877;-57
2022/01/13 07:22:23;;;;;;;;;;;;;;;12.77;48.45;102692.31;4931589;28;117984;-57
2022/01/13 07:24:49;;;;;;;;;;;;;;;12.77;48.54;102700.44;4922516;28;127808;-64
2022/01/13 07:27:15;;;;;;;;;;;;;;;12.80;48.59;102709.13;4922150;28;97878;-65
2022/01/13 07:29:42;;;;;;;;;;;;;;;12.81;48.33;102713.47;4927546;28;98287;-57
2022/01/13 07:32:12;;;;;;;;;;;;;;;12.83;48.50;102711.38;4941899;28;98712;-56
2022/01/13 07:34:38;;;;;;;;;;;;;;;12.83;48.40;102714.91;4940983;28;97942;-56
2022/01/13 07:37:04;;;;;;;;;;;;;;;12.83;48.47;102712.22;4939857;28;99319;-57
2022/01/13 07:39:30;;;;;;;;;;;;;;;12.85;48.45;102731.75;4942137;28;98263;-57
2022/01/13 07:41:56;;;;;;;;;;;;;;;12.86;48.32;102738.81;4945095;28;98566;-65
2022/01/13 07:44:22;;;;;;;;;;;;;;;12.86;48.56;102744.22;4941922;28;97977;-64
2022/01/13 07:46:48;;;;;;;;;;;;;;;12.89;48.48;102749.19;4940148;28;97869;-57
2022/01/13 07:49:14;;;;;;;;;;;;;;;12.90;48.47;102740.03;4940247;28;129017;-64
2022/01/13 07:51:40;;;;;;;;;;;;;;;12.92;48.34;102729.78;4941377;28;99141;-57
2022/01/13 07:54:06;;;;;;;;;;;;;;;12.94;48.41;102724.16;4940372;28;127939;-56
2022/01/13 07:56:32;;;;;;;;;;;;;;;12.96;48.62;102713.91;4940504;28;97979;-65
2022/01/13 07:58:58;;;;;;;;;;;;;;;12.97;48.36;102708.28;4940625;28;128400;-64
2022/01/13 08:01:24;;;;;;;;;;;;;;;13.02;48.40;102696.75;4941028;28;115007;-64
2022/01/13 08:03:50;;;;;;;;;;;;;;;13.05;48.26;102703.56;4939725;28;99169;-57
2022/01/13 08:06:16;;;;;;;;;;;;;;;13.06;48.15;102700.66;4940314;28;120955;-64
2022/01/13 08:08:42;;;;;;;;;;;;;;;13.11;48.11;102710.78;4941197;28;98974;-58
2022/01/13 08:11:08;;;;;;;;;;;;;;;13.14;48.08;102711.16;4939693;28;127139;-65
2022/01/13 08:13:34;;;;;;;;;;;;;;;13.19;48.04;102707.75;4927554;28;99370;-57
2022/01/13 08:16:03;;;;;;;;;;;;;;;13.23;47.95;102703.56;4922098;28;97895;-56
2022/01/13 08:21:16;;;;;;;;;;;;;;;13.30;48.15;102703.47;4920832;28;98131;-64
2022/01/13 08:23:42;;;;;;;;;;;;;;;13.33;48.17;102695.72;4922354;28;97827;-60
2022/01/13 08:26:08;;;;;;;;;;;;;;;13.37;48.01;102693.38;4935645;28;113092;-64
2022/01/13 08:28:34;;;;;;;;;;;;;;;13.42;47.81;102698.91;4937160;28;121230;-65
2022/01/13 08:31:01;;;;;;;;;;;;;;;13.46;47.81;102694.66;4941236;28;98872;-64
2022/01/13 08:33:26;;;;;;;;;;;;;;;13.50;48.23;102693.97;4941503;28;98556;-64
2022/01/13 08:35:53;;;;;;;;;;;;;;;13.56;47.73;102699.50;4939275;28;103661;-64
2022/01/13 08:38:19;;;;;;;;;;;;;;;13.58;47.83;102690.09;4941312;28;98468;-57
2022/01/13 08:40:46;;;;;;;;;;;;;;;13.65;47.77;102685.38;4941270;28;98606;-64
2022/01/13 08:43:13;;;;;;;;;;;;;;;13.70;48.01;102671.94;4941112;28;97931;-65
2022/01/13 08:45:39;;;;;;;;;;;;;;;13.78;48.08;102667.25;4940484;28;98142;-58
2022/01/13 08:48:05;;;;;;;;;;;;;;;13.82;47.69;102671.94;4938779;28;128360;-64
2022/01/13 08:50:31;;;;;;;;;;;;;;;13.89;48.06;102685.41;4924153;28;128212;-65
2022/01/13 08:52:57;;;;;;;;;;;;;;;13.92;47.92;102683.03;4920382;28;126219;-64
2022/01/13 08:55:23;;;;;;;;;;;;;;;13.98;47.97;102667.69;4921502;28;123734;-64
2022/01/13 08:57:49;;;;;;;;;;;;;;;13.99;48.09;102688.34;4920296;28;128192;-65
2022/01/13 09:00:15;;;;;;;;;;;;;;;14.01;48.09;102683.50;4918675;28;126836;-64
2022/01/13 09:02:42;;;;;;;;;;;;;;;14.03;47.78;102680.53;4919289;28;123877;-65
2022/01/13 09:05:08;;;;;;;;;;;;;;;14.06;48.20;102680.06;4922333;28;97864;-66
2022/01/13 09:07:34;;;;;;;;;;;;;;;14.07;48.03;102677.16;4920801;28;100487;-65
2022/01/13 09:10:00;;;;;;;;;;;;;;;14.11;47.92;102677.47;4919970;28;124226;-65
2022/01/13 09:12:25;;;;;;;;;;;;;;;14.11;48.01;102678.31;4920369;28;127524;-65
2022/01/13 09:14:58;;;;;;;;;;;;;;;14.16;47.97;102673.00;4921801;28;121346;-65
2022/01/13 09:17:24;;;;;;;;;;;;;;;14.17;47.88;102671.94;4925394;28;98840;-64
2022/01/13 09:19:51;;;;;;;;;;;;;;;14.20;48.32;102673.34;4939658;28;98949;-64
2022/01/13 09:22:18;;;;;;;;;;;;;;;14.23;48.33;102684.56;4940217;28;98265;-64
2022/01/13 09:24:44;;;;;;;;;;;;;;;14.24;48.14;102702.47;4939487;28;97661;-64
2022/01/13 09:27:10;;;;;;;;;;;;;;;14.27;47.97;102682.19;4939559;28;113892;-65
2022/01/13 09:29:36;;;;;;;;;;;;;;;14.27;48.05;102674.06;4939410;28;128034;-65
2022/01/13 09:32:02;;;;;;;;;;;;;;;14.29;48.01;102674.63;4939356;28;115269;-65
2022/01/13 09:34:28;;;;;;;;;;;;;;;14.33;48.14;102672.25;4939352;28;99236;-65
2022/01/13 09:36:53;;;;;;;;;;;;;;;14.38;48.41;102670.50;4920771;28;98580;-65
2022/01/13 09:39:19;;;;;;;;;;;;;;;14.44;48.21;102674.13;4920389;28;127122;-64
2022/01/13 09:41:46;;;;;;;;;;;;;;;14.46;48.37;102677.41;4919210;28;126455;-65
2022/01/13 09:44:13;;;;;;;;;;;;;;;14.48;48.03;102673.41;4904427;28;122406;-65
2022/01/13 09:46:39;;;;;;;;;;;;;;;14.52;48.15;102679.19;4920789;28;98361;-64
2022/01/13 09:49:06;;;;;;;;;;;;;;;14.55;48.50;102683.34;4920251;28;99003;-65
2022/01/13 09:51:32;;;;;;;;;;;;;;;14.57;48.36;102673.03;4920060;28;98672;-65
2022/01/13 09:53:58;;;;;;;;;;;;;;;14.58;48.16;102677.41;4919576;28;112434;-65
2022/01/13 09:56:24;;;;;;;;;;;;;;;14.59;48.43;102679.06;4920400;28;121304;-65
2022/01/13 09:58:50;;;;;;;;;;;;;;;14.61;48.17;102683.19;4920163;28;99496;-65
2022/01/13 10:01:16;;;;;;;;;;;;;;;14.65;48.07;102678.09;4918664;28;127631;-65
2022/01/13 10:03:42;;;;;;;;;;;;;;;14.68;48.21;102686.56;4919632;28;121986;-65
2022/01/13 10:06:11;;;;;;;;;;;;;;;14.77;48.14;102684.31;4919517;28;116192;-65
2022/01/13 10:08:49;;;;;;;;;;;;;;;14.84;48.35;102676.84;4921720;28;98460;-65
2022/01/13 10:11:36;;;;;;;;;;;;;;;14.92;48.08;102686.50;4936921;28;97965;-65
2022/01/13 10:14:10;;;;;;;;;;;;;;;15.08;48.30;102685.69;4939108;28;97775;-65
2022/01/13 10:16:48;;;;;;;;;;;;;;;15.23;48.05;102685.97;4939672;28;99009;-65
2022/01/13 10:19:28;;;;;;;;;;;;;;;15.40;47.61;102688.69;4940005;28;98669;-66
2022/01/13 10:22:07;;;;;;;;;;;;;;;15.51;47.50;102681.53;4939596;28;98159;-65
2022/01/13 10:24:37;;;;;;;;;;;;;;;15.65;47.58;102679.38;4934203;28;118434;-65
2022/01/13 10:27:11;;;;;;;;;;;;;;;15.74;47.32;102668.88;4919186;28;122271;-66
2022/01/13 10:29:45;;;;;;;;;;;;;;;15.82;47.71;102676.63;4921880;28;97702;-65
2022/01/13 10:32:16;;;;;;;;;;;;;;;15.88;47.53;102675.63;4939553;28;98429;-64
2022/01/13 10:34:45;;;;;;;;;;;;;;;15.94;47.47;102678.16;4940024;28;97753;-65
2022/01/13 10:37:16;;;;;;;;;;;;;;;15.98;47.60;102673.03;4940325;28;98269;-65
2022/01/13 10:40:12;;;;;;;;;;;;;;;16.01;47.52;102666.28;4921243;28;98819;-64
2022/01/13 10:45:17;;;;;;;;;;;;;;;16.01;48.01;102649.97;4923252;28;98024;-65
2022/01/13 10:47:50;;;;;;;;;;;;;;;15.98;47.87;102643.13;4939647;28;98279;-65
2022/01/13 10:50:16;;;;;;;;;;;;;;;15.96;47.77;102648.00;4939230;28;98831;-65
2022/01/13 10:52:42;;;;;;;;;;;;;;;15.94;47.99;102645.53;4938645;28;115450;-64
2022/01/13 10:55:13;;;;;;;;;;;;;;;15.93;48.05;102637.63;4937385;28;117013;-64
2022/01/13 10:57:43;;;;;;;;;;;;;;;15.92;48.28;102638.72;4936797;28;98575;-66
2022/01/13 11:00:18;;;;;;;;;;;;;;;15.91;48.14;102635.13;4939547;28;98377;-65
2022/01/13 11:02:58;;;;;;;;;;;;;;;15.91;48.34;102635.13;4939844;28;98583;-65
2022/01/13 11:05:25;;;;;;;;;;;;;;;15.93;48.42;102629.47;4936975;28;97820;-65
2022/01/13 11:07:51;;;;;;;;;;;;;;;15.95;48.17;102630.03;4921002;28;99013;-66
2022/01/13 11:10:17;;;;;;;;;;;;;;;15.95;48.10;102625.44;4919899;28;128634;-65
2022/01/13 11:12:44;;;;;;;;;;;;;;;15.99;48.40;102627.63;4935338;28;98015;-65
2022/01/13 11:15:14;;;;;;;;;;;;;;;16.00;48.11;102623.84;4922291;28;97877;-65
2022/01/13 11:17:41;;;;;;;;;;;;;;;16.00;48.27;102619.22;4923559;28;98881;-64
2022/01/13 11:20:09;;;;;;;;;;;;;;;16.03;48.00;102615.97;4927523;28;98503;-65
2022/01/13 11:22:36;;;;;;;;;;;;;;;16.05;48.15;102621.19;4939259;28;112673;-65
2022/01/13 11:25:03;;;;;;;;;;;;;;;16.07;48.13;102619.88;4925016;28;119171;-65
2022/01/13 11:27:29;;;;;;;;;;;;;;;16.10;48.30;102610.38;4933397;28;117334;-65
2022/01/13 11:29:56;;;;;;;;;;;;;;;16.13;48.16;102610.69;4941838;28;98609;-64
2022/01/13 11:32:22;;;;;;;;;;;;;;;16.17;48.26;102611.00;4942079;28;98480;-65
2022/01/13 11:34:48;;;;;;;;;;;;;;;16.22;48.25;102607.53;4943487;28;97733;-66
2022/01/13 11:37:14;;;;;;;;;;;;;;;16.26;48.14;102606.75;4940182;28;126329;-65
2022/01/13 11:39:44;;;;;;;;;;;;;;;16.31;48.14;102605.97;4927105;28;128134;-65
2022/01/13 11:42:11;;;;;;;;;;;;;;;16.34;48.15;102611.75;4942787;28;97907;-57
2022/01/13 11:44:37;;;;;;;;;;;;;;;16.35;48.07;102609.88;4940677;28;98078;-65
2022/01/13 11:47:15;;;;;;;;;;;;;;;16.39;48.15;102620.00;4921608;28;99403;-65
2022/01/13 11:49:56;;;;;;;;;;;;;;;16.40;48.23;102612.66;4936051;28;99127;-57
2022/01/13 11:52:40;;;;;;;;;;;;;;;16.41;48.36;102596.03;4922216;28;98318;-57
2022/01/13 11:55:35;;;;;;;;;;;;;;;16.42;48.37;102589.50;4924130;28;97927;-57
2022/01/13 11:58:17;;;;;;;;;;;;;;;16.45;48.29;102589.00;4932439;28;99167;-65
2022/01/13 12:00:44;;;;;;;;;;;;;;;16.47;48.27;102585.25;4941718;28;99268;-65
2022/01/13 12:03:33;;;;;;;;;;;;;;;16.47;48.33;102569.72;4940599;28;97988;-57
2022/01/13 12:06:00;;;;;;;;;;;;;;;16.48;48.38;102563.19;4938725;28;108712;-57
2022/01/13 12:08:46;;;;;;;;;;;;;;;16.48;48.46;102565.91;4932988;28;99207;-65
2022/01/13 12:11:45;;;;;;;;;;;;;;;16.48;48.48;102570.53;4941453;28;98962;-64
2022/01/13 12:14:30;;;;;;;;;;;;;;;16.48;48.72;102554.22;4923228;28;98576;-57
2022/01/13 12:17:26;;;;;;;;;;;;;;;16.48;48.40;102552.31;4921677;28;98134;-57
2022/01/13 12:20:00;;;;;;;;;;;;;;;16.48;48.79;102544.13;4921440;28;99059;-65
2022/01/13 12:22:40;;;;;;;;;;;;;;;16.49;48.49;102534.88;4921341;28;98776;-57
2022/01/13 12:25:11;;;;;;;;;;;;;;;16.49;48.53;102529.44;4927732;28;97959;-65
2022/01/13 12:27:40;;;;;;;;;;;;;;;16.52;48.66;102544.44;4927953;28;98314;-57
2022/01/13 12:30:21;;;;;;;;;;;;;;;16.50;48.67;102531.06;4921357;28;98609;-64
2022/01/13 12:32:48;;;;;;;;;;;;;;;16.52;48.51;102530.84;4921706;28;98790;-64
2022/01/13 12:35:21;;;;;;;;;;;;;;;16.49;48.87;102515.84;4920105;28;106304;-57
2022/01/13 12:38:01;;;;;;;;;;;;;;;16.48;48.71;102516.09;4921476;28;97641;-66
2022/01/13 12:40:28;;;;;;;;;;;;;;;16.49;48.72;102506.84;4926588;28;98414;-65
2022/01/13 12:42:54;;;;;;;;;;;;;;;16.47;48.92;102503.59;4899617;28;99102;-65
2022/01/13 12:45:28;;;;;;;;;;;;;;;16.46;48.93;102505.47;4911258;28;98450;-65
2022/01/13 12:47:58;;;;;;;;;;;;;;;16.46;48.84;102500.00;4921054;28;97639;-57
2022/01/13 12:50:26;;;;;;;;;;;;;;;16.44;48.88;102499.47;4920655;28;98870;-57
2022/01/13 12:52:55;;;;;;;;;;;;;;;16.42;48.95;102498.88;4939373;28;98340;-62
2022/01/13 12:55:21;;;;;;;;;;;;;;;16.38;48.89;102490.41;4932044;28;97897;-57
2022/01/13 12:57:56;;;;;;;;;;;;;;;16.36;49.13;102491.78;4920411;28;123938;-57
2022/01/13 13:00:23;;;;;;;;;;;;;;;16.32;48.96;102474.31;4934496;28;99178;-65
2022/01/13 13:02:51;;;;;;;;;;;;;;;16.30;49.25;102476.47;4941229;28;98816;-65